Pottersville, Vermont
Current Conditions -  °F | °C
As of 8:54 AM on Friday 19 Dec 2014 (Local Time) from KMVL Reporting Station
Overcast Overcast  
Wind Chill: 14°   Ceiling: 1900
Heat Index: 24°   Visibility: 10mi
Dew Point: 19°   Wind: 10mph
Humidity: 81%   Direction: 360°N
Pressure: 30.01"   Gusts: 18mph
Location:  44.5359°N, 72.4842°W
Report Text: KMVL 191354Z AUTO 36009G16KT 10SM OVC019 M04/M07 A3001 RMK AO2 SLP173 T10441072 TSNO
Loading
Personal Weather Stations






























Interactive Weather Map New forecast layout! Learn more

10-Day Weather Forecast

Advertisements
Track Severe Weather on mobile